createdAt,value
2023-07-18T00:01:02.596Z,46.83
2023-07-18T00:03:41.538Z,47.03
2023-07-18T00:06:10.192Z,47.26
2023-07-18T00:08:40.178Z,46.93
2023-07-18T00:11:08.253Z,46.72
2023-07-18T00:13:36.818Z,46.74
2023-07-18T00:16:05.196Z,46.69
2023-07-18T00:18:33.417Z,47.40
2023-07-18T00:21:02.808Z,47.74
2023-07-18T00:23:31.514Z,48.39
2023-07-18T00:25:59.581Z,48.66
2023-07-18T00:28:27.951Z,48.50
2023-07-18T00:30:56.275Z,49.77
2023-07-18T00:33:25.102Z,49.66
2023-07-18T00:35:53.115Z,49.45
2023-07-18T00:38:22.553Z,49.55
2023-07-18T00:40:51.086Z,49.95
2023-07-18T00:43:19.366Z,49.88
2023-07-18T00:45:50.337Z,48.60
2023-07-18T00:48:18.970Z,48.22
2023-07-18T00:51:08.396Z,48.32
2023-07-18T00:53:39.757Z,48.50
2023-07-18T00:56:09.645Z,48.82
2023-07-18T00:58:37.915Z,49.67
2023-07-18T01:01:06.684Z,49.65
2023-07-18T01:03:35.514Z,49.24
2023-07-18T01:06:04.423Z,49.05
2023-07-18T01:08:32.599Z,48.31
2023-07-18T01:11:03.583Z,48.26
2023-07-18T01:13:31.576Z,49.42
2023-07-18T01:15:59.884Z,49.81
2023-07-18T01:18:28.047Z,49.74
2023-07-18T01:20:56.586Z,49.83
2023-07-18T01:23:26.457Z,50.35
2023-07-18T01:25:55.673Z,50.27
2023-07-18T01:28:24.534Z,50.92
2023-07-18T01:30:52.849Z,51.40
2023-07-18T01:33:20.950Z,51.40
2023-07-18T01:35:49.298Z,51.97
2023-07-18T01:38:17.289Z,51.93
2023-07-18T01:40:46.976Z,51.95
2023-07-18T01:43:15.086Z,51.63
2023-07-18T01:45:43.404Z,51.98
2023-07-18T01:48:11.624Z,52.37
2023-07-18T01:50:41.343Z,52.55
2023-07-18T01:53:11.907Z,52.54
2023-07-18T01:55:40.266Z,52.47
2023-07-18T01:58:09.748Z,53.02
2023-07-18T02:00:38.099Z,52.95
2023-07-18T02:03:06.960Z,53.10
2023-07-18T02:05:35.702Z,53.36
2023-07-18T02:08:03.670Z,53.06
2023-07-18T02:10:32.379Z,52.14
2023-07-18T02:13:04.189Z,52.17
2023-07-18T02:15:34.878Z,51.45
2023-07-18T02:18:07.203Z,51.47
2023-07-18T02:20:35.595Z,51.14
2023-07-18T02:23:03.635Z,51.68
2023-07-18T02:25:31.936Z,52.25
2023-07-18T02:27:59.941Z,51.62
2023-07-18T02:30:32.133Z,51.36
2023-07-18T02:33:01.537Z,51.29
2023-07-18T02:35:29.885Z,51.02
2023-07-18T02:38:00.545Z,51.33
2023-07-18T02:40:28.854Z,51.32
2023-07-18T02:42:57.945Z,51.22
2023-07-18T02:45:26.261Z,51.87
2023-07-18T02:47:54.593Z,52.15
2023-07-18T02:50:24.307Z,52.51
2023-07-18T02:52:52.712Z,52.84
2023-07-18T02:55:21.032Z,53.03
2023-07-18T02:57:49.109Z,53.23
2023-07-18T03:00:21.147Z,53.42
2023-07-18T03:02:50.461Z,53.96
2023-07-18T03:05:19.577Z,54.18
2023-07-18T03:07:49.334Z,54.38
2023-07-18T03:10:17.644Z,54.70
2023-07-18T03:12:45.709Z,54.39
2023-07-18T03:15:14.116Z,54.61
2023-07-18T03:17:42.819Z,55.03
2023-07-18T03:20:17.965Z,54.42
2023-07-18T03:22:46.477Z,53.60
2023-07-18T03:25:17.191Z,52.74
2023-07-18T03:27:45.996Z,52.73
2023-07-18T03:30:14.406Z,52.84
2023-07-18T03:32:42.756Z,53.47
2023-07-18T03:35:12.088Z,53.88
2023-07-18T03:37:40.212Z,54.14
2023-07-18T03:40:11.083Z,54.62
2023-07-18T03:42:40.669Z,53.83
2023-07-18T03:45:11.505Z,53.95
2023-07-18T03:47:39.688Z,54.20
2023-07-18T03:50:10.345Z,55.14
2023-07-18T03:52:38.442Z,55.50
2023-07-18T03:55:07.982Z,56.14
2023-07-18T03:57:36.562Z,56.80
2023-07-18T04:00:15.249Z,56.55
2023-07-18T04:02:46.795Z,57.14
2023-07-18T04:05:16.378Z,57.29
2023-07-18T04:07:45.260Z,57.45
2023-07-18T04:10:14.216Z,58.61
2023-07-18T04:12:42.673Z,58.72
2023-07-18T04:15:13.029Z,58.16
2023-07-18T04:17:41.142Z,57.97
2023-07-18T04:20:10.025Z,58.34
2023-07-18T04:22:38.261Z,57.80
2023-07-18T04:25:07.676Z,56.94
2023-07-18T04:27:35.702Z,58.01
2023-07-18T04:30:04.817Z,58.40
2023-07-18T04:32:34.975Z,58.54
2023-07-18T04:35:04.906Z,58.76
2023-07-18T04:37:33.015Z,58.92
2023-07-18T04:40:01.287Z,58.68
2023-07-18T04:42:29.972Z,59.31
2023-07-18T04:44:58.689Z,58.47
2023-07-18T04:47:27.594Z,58.68
2023-07-18T04:49:57.716Z,58.47
2023-07-18T04:52:25.959Z,58.84
2023-07-18T04:54:54.544Z,58.15
2023-07-18T04:57:23.340Z,57.26
2023-07-18T04:59:51.805Z,56.96
2023-07-18T05:02:20.424Z,57.40
2023-07-18T05:04:49.209Z,57.51
2023-07-18T05:07:18.619Z,57.32
2023-07-18T05:09:47.653Z,57.16
2023-07-18T05:12:15.782Z,57.61
2023-07-18T05:14:44.458Z,57.79
2023-07-18T05:17:12.631Z,57.13
2023-07-18T05:19:40.957Z,57.08
2023-07-18T05:22:08.986Z,57.56
2023-07-18T05:24:38.868Z,56.22
2023-07-18T05:27:07.384Z,56.06
2023-07-18T05:29:35.695Z,55.88
2023-07-18T05:32:03.877Z,57.03
2023-07-18T05:34:32.226Z,56.73
2023-07-18T05:37:01.956Z,56.53
2023-07-18T05:39:30.241Z,56.14
2023-07-18T05:41:59.611Z,56.22
2023-07-18T05:44:28.090Z,55.74
2023-07-18T05:46:56.076Z,56.14
2023-07-18T05:49:24.379Z,56.00
2023-07-18T05:51:53.077Z,56.30
2023-07-18T05:54:21.452Z,56.28
2023-07-18T05:56:49.629Z,56.12
2023-07-18T05:59:19.327Z,55.88
2023-07-18T06:01:47.906Z,56.07
2023-07-18T06:04:17.240Z,55.75
2023-07-18T06:06:46.076Z,56.68
2023-07-18T06:09:14.794Z,56.79
2023-07-18T06:11:43.429Z,56.35
2023-07-18T06:14:11.886Z,56.49
2023-07-18T06:16:41.330Z,54.77
2023-07-18T06:19:09.840Z,55.16
2023-07-18T06:21:37.878Z,55.00
2023-07-18T06:24:17.972Z,55.02
2023-07-18T06:26:50.151Z,54.53
2023-07-18T06:29:19.645Z,53.24
2023-07-18T06:31:50.067Z,53.48
2023-07-18T06:34:19.071Z,54.17
2023-07-18T06:36:47.954Z,53.95
2023-07-18T06:39:17.804Z,53.12
2023-07-18T06:41:46.516Z,51.88
2023-07-18T06:44:16.591Z,51.25
2023-07-18T06:46:45.002Z,51.09
2023-07-18T06:49:16.269Z,49.89
2023-07-18T06:51:44.441Z,50.23
2023-07-18T06:54:13.044Z,48.53
2023-07-18T06:56:41.913Z,48.05
2023-07-18T06:59:10.918Z,47.80
2023-07-18T07:01:39.006Z,47.62
2023-07-18T07:04:07.567Z,48.28
2023-07-18T07:06:42.405Z,48.05
2023-07-18T07:09:11.318Z,47.27
2023-07-18T07:11:39.472Z,46.93
2023-07-18T07:14:07.779Z,48.13
2023-07-18T07:16:36.336Z,48.30
2023-07-18T07:19:06.598Z,46.37
2023-07-18T07:21:35.063Z,46.37
2023-07-18T07:24:05.270Z,45.40
2023-07-18T07:26:33.553Z,45.62
2023-07-18T07:29:01.905Z,46.74
2023-07-18T07:31:30.098Z,46.30
2023-07-18T07:33:58.595Z,46.08
2023-07-18T07:36:26.714Z,46.15
2023-07-18T07:38:55.066Z,45.97
2023-07-18T07:41:25.963Z,45.24
2023-07-18T07:43:54.256Z,45.06
2023-07-18T07:46:22.383Z,44.90
2023-07-18T07:48:50.673Z,44.51
2023-07-18T07:51:19.230Z,44.25
2023-07-18T07:53:48.269Z,44.75
2023-07-18T07:56:16.357Z,43.64
2023-07-18T07:58:57.414Z,43.87
2023-07-18T08:01:33.509Z,43.60
2023-07-18T08:04:01.893Z,43.36
2023-07-18T08:06:30.004Z,43.24
2023-07-18T08:08:58.583Z,43.24
2023-07-18T08:11:26.640Z,43.15
2023-07-18T08:13:56.226Z,43.43
2023-07-18T08:16:27.390Z,42.38
2023-07-18T08:18:55.796Z,42.82
2023-07-18T08:21:24.170Z,41.11
2023-07-18T08:23:52.404Z,41.30
2023-07-18T08:26:20.549Z,41.05
2023-07-18T08:28:48.948Z,41.16
2023-07-18T08:31:18.680Z,41.33
2023-07-18T08:33:47.574Z,40.86
2023-07-18T08:36:15.662Z,40.92
2023-07-18T08:38:50.424Z,41.33
2023-07-18T08:41:19.725Z,41.29
2023-07-18T08:43:48.955Z,41.29
2023-07-18T08:46:19.403Z,40.44
2023-07-18T08:48:48.845Z,40.05
2023-07-18T08:51:17.251Z,40.61
2023-07-18T08:53:46.168Z,40.55
2023-07-18T08:56:14.263Z,40.43
2023-07-18T08:58:42.581Z,40.46
2023-07-18T09:01:10.692Z,40.30
2023-07-18T09:03:40.474Z,40.68
2023-07-18T09:06:19.261Z,39.88
2023-07-18T09:08:47.882Z,40.27
2023-07-18T09:11:20.250Z,39.64
2023-07-18T09:13:49.222Z,40.67
2023-07-18T09:16:19.316Z,40.40
2023-07-18T09:18:51.704Z,40.23
2023-07-18T09:21:24.030Z,40.05
2023-07-18T09:23:53.896Z,39.28
2023-07-18T09:26:23.295Z,38.72
2023-07-18T09:28:53.064Z,39.60
2023-07-18T09:31:22.955Z,38.88
2023-07-18T09:33:54.254Z,39.03
2023-07-18T09:36:23.520Z,38.13
2023-07-18T09:38:52.402Z,38.54
2023-07-18T09:41:22.925Z,38.38
2023-07-18T09:43:51.661Z,38.05
2023-07-18T09:46:19.779Z,38.81
2023-07-18T09:48:51.079Z,38.21
2023-07-18T09:51:23.321Z,38.09
2023-07-18T09:53:55.002Z,38.03
2023-07-18T09:56:23.633Z,36.99
2023-07-18T09:58:52.179Z,37.30
2023-07-18T10:01:22.098Z,37.35
2023-07-18T10:03:53.999Z,38.05
2023-07-18T10:06:23.771Z,38.16
2023-07-18T10:08:52.334Z,37.18
2023-07-18T10:11:20.680Z,36.75
2023-07-18T10:14:13.273Z,36.16
2023-07-18T10:16:43.377Z,36.15
2023-07-18T10:19:19.552Z,36.10
2023-07-18T10:21:49.039Z,36.86
2023-07-18T10:24:25.690Z,36.48
2023-07-18T10:26:56.608Z,35.60
2023-07-18T10:30:04.538Z,35.61
2023-07-18T10:32:33.235Z,35.33
2023-07-18T10:35:02.046Z,36.18
2023-07-18T10:37:31.960Z,36.61
2023-07-18T10:40:05.953Z,36.31
2023-07-18T10:42:36.204Z,35.37
2023-07-18T10:45:06.502Z,35.43
2023-07-18T10:47:37.244Z,35.63
2023-07-18T10:50:07.676Z,35.28
2023-07-18T10:52:37.277Z,35.72
2023-07-18T10:55:08.301Z,35.49
2023-07-18T10:57:39.588Z,36.40
2023-07-18T11:00:09.179Z,35.10
2023-07-18T11:02:39.493Z,34.89
2023-07-18T11:05:12.006Z,35.02
2023-07-18T11:07:43.382Z,34.95
2023-07-18T11:10:14.039Z,35.59
2023-07-18T11:12:43.046Z,34.60
2023-07-18T11:15:12.919Z,33.63
2023-07-18T11:17:43.148Z,33.81
2023-07-18T11:20:13.347Z,34.45
2023-07-18T11:22:43.258Z,34.23
2023-07-18T11:25:12.270Z,33.26
2023-07-18T11:27:41.044Z,34.57
2023-07-18T11:30:12.293Z,33.67
2023-07-18T11:32:42.273Z,33.46
2023-07-18T11:35:12.588Z,34.79
2023-07-18T11:37:43.236Z,33.33
2023-07-18T11:40:14.142Z,33.45
2023-07-18T11:42:47.508Z,34.99
2023-07-18T11:45:20.946Z,34.85
2023-07-18T11:47:50.752Z,34.04
2023-07-18T11:50:20.099Z,35.02
2023-07-18T11:52:49.592Z,34.44
2023-07-18T11:55:20.227Z,33.77
2023-07-18T11:57:49.580Z,34.01
2023-07-18T12:00:18.717Z,32.54
2023-07-18T12:02:49.106Z,32.69
2023-07-18T12:05:18.114Z,32.52
2023-07-18T12:07:47.262Z,33.18
2023-07-18T12:10:16.951Z,33.51
2023-07-18T12:12:46.566Z,33.54
2023-07-18T12:15:15.170Z,33.31
2023-07-18T12:17:43.861Z,33.09
2023-07-18T12:20:13.384Z,32.67
2023-07-18T12:22:41.642Z,32.10
2023-07-18T12:25:10.472Z,32.35
2023-07-18T12:27:39.243Z,31.91
2023-07-18T12:30:13.380Z,31.28
2023-07-18T12:32:41.889Z,31.30
2023-07-18T12:35:10.669Z,30.90
2023-07-18T12:37:38.775Z,30.88
2023-07-18T12:40:08.805Z,31.49
2023-07-18T12:42:37.105Z,31.59
2023-07-18T12:45:06.247Z,32.28
2023-07-18T12:47:35.743Z,31.58
2023-07-18T12:50:05.097Z,31.91
2023-07-18T12:52:33.282Z,31.73
2023-07-18T12:55:01.665Z,31.25
2023-07-18T12:57:32.273Z,31.07
2023-07-18T13:00:01.169Z,30.60
2023-07-18T13:02:30.356Z,30.32
2023-07-18T13:05:00.012Z,30.33
2023-07-18T13:07:28.086Z,30.95
2023-07-18T13:09:56.418Z,31.33
2023-07-18T13:12:24.513Z,31.40
2023-07-18T13:14:52.804Z,30.60
2023-07-18T13:17:22.034Z,30.52
2023-07-18T13:19:50.528Z,29.52
2023-07-18T13:22:19.919Z,29.67
2023-07-18T13:24:48.246Z,29.18
2023-07-18T13:27:16.282Z,29.95
2023-07-18T13:29:44.552Z,29.36
2023-07-18T13:32:12.701Z,29.16
2023-07-18T13:34:41.060Z,28.82
2023-07-18T13:37:09.089Z,28.94
2023-07-18T13:39:39.007Z,28.94
2023-07-18T13:42:07.742Z,29.20
2023-07-18T13:44:36.011Z,28.21
2023-07-18T13:47:04.512Z,29.00
2023-07-18T13:52:04.736Z,29.58
2023-07-18T13:54:33.113Z,29.92
2023-07-18T13:57:02.462Z,29.23
2023-07-18T13:59:30.696Z,29.32
2023-07-18T14:01:58.904Z,28.54
2023-07-18T14:04:27.779Z,28.84
2023-07-18T14:06:55.898Z,29.12
2023-07-18T14:09:24.161Z,29.51
2023-07-18T14:11:52.566Z,28.77
2023-07-18T14:14:22.252Z,27.52
2023-07-18T14:16:50.319Z,27.67
2023-07-18T14:19:18.674Z,26.95
2023-07-18T14:21:49.612Z,28.23
2023-07-18T14:24:17.956Z,27.85
2023-07-18T14:26:46.050Z,27.27
2023-07-18T14:29:14.396Z,26.50
2023-07-18T14:31:44.181Z,26.58
2023-07-18T14:34:12.513Z,26.32
2023-07-18T14:36:40.480Z,26.78
2023-07-18T14:39:09.113Z,26.85
2023-07-18T14:41:37.174Z,27.04
2023-07-18T14:44:05.899Z,25.76
2023-07-18T14:46:34.906Z,25.52
2023-07-18T14:49:04.571Z,25.86
2023-07-18T14:51:33.351Z,25.43
2023-07-18T14:54:01.754Z,25.27
2023-07-18T14:56:30.413Z,25.25
2023-07-18T14:58:58.629Z,24.96
2023-07-18T15:01:27.016Z,24.84
2023-07-18T15:03:55.587Z,25.23
2023-07-18T15:06:25.170Z,25.05
2023-07-18T15:08:53.833Z,23.31
2023-07-18T15:11:22.207Z,23.03
2023-07-18T15:13:50.761Z,23.84
2023-07-18T15:16:19.081Z,23.87
2023-07-18T15:18:47.611Z,23.29
2023-07-18T15:21:15.675Z,21.80
2023-07-18T15:23:45.251Z,21.39
2023-07-18T15:26:14.597Z,21.35
2023-07-18T15:28:42.986Z,21.71
2023-07-18T15:31:11.102Z,21.27
2023-07-18T15:33:39.515Z,21.80
2023-07-18T15:36:07.741Z,20.76
2023-07-18T15:38:36.019Z,21.25
2023-07-18T15:41:05.529Z,21.25
2023-07-18T15:43:34.201Z,21.38
2023-07-18T15:46:04.503Z,20.20
2023-07-18T15:48:32.874Z,21.21
2023-07-18T15:51:00.902Z,21.04
2023-07-18T15:53:29.151Z,18.86
2023-07-18T15:55:57.709Z,19.20
2023-07-18T15:58:27.305Z,19.70
2023-07-18T16:00:57.532Z,20.38
2023-07-18T16:03:26.071Z,19.27
2023-07-18T16:05:54.536Z,18.84
2023-07-18T16:08:22.905Z,18.81
2023-07-18T16:10:51.114Z,18.40
2023-07-18T16:13:19.427Z,18.23
2023-07-18T16:15:48.871Z,17.81
2023-07-18T16:18:17.983Z,18.07
2023-07-18T16:20:46.265Z,18.35
2023-07-18T16:23:14.715Z,18.41
2023-07-18T16:25:43.742Z,18.89
2023-07-18T16:28:12.282Z,18.97
2023-07-18T16:30:40.305Z,17.58
2023-07-18T16:33:10.031Z,18.26
2023-07-18T16:35:39.321Z,18.59
2023-07-18T16:38:08.221Z,18.99
2023-07-18T16:40:36.808Z,17.46
2023-07-18T16:43:05.898Z,18.24
2023-07-18T16:45:35.799Z,17.67
2023-07-18T16:48:06.571Z,16.87
2023-07-18T16:50:36.996Z,17.98
2023-07-18T16:53:05.425Z,17.44
2023-07-18T16:55:33.440Z,17.81
2023-07-18T16:58:02.023Z,17.77
2023-07-18T17:00:30.173Z,17.77
2023-07-18T17:02:58.403Z,18.22
2023-07-18T17:05:26.654Z,18.62
2023-07-18T17:07:56.519Z,18.85
2023-07-18T17:10:25.460Z,19.02
2023-07-18T17:12:53.818Z,18.75
2023-07-18T17:15:22.136Z,18.86
2023-07-18T17:17:50.663Z,18.35
2023-07-18T17:20:18.672Z,18.43
2023-07-18T17:22:47.054Z,19.45
2023-07-18T17:25:16.648Z,20.87
2023-07-18T17:27:44.907Z,20.57
2023-07-18T17:30:14.980Z,20.40
2023-07-18T17:32:43.653Z,20.74
2023-07-18T17:35:11.712Z,19.16
2023-07-18T17:37:41.128Z,19.03
2023-07-18T17:40:12.425Z,18.94
2023-07-18T17:42:44.098Z,19.64
2023-07-18T17:45:13.361Z,19.82
2023-07-18T17:47:44.609Z,21.06
2023-07-18T17:50:12.884Z,19.85
2023-07-18T17:52:41.951Z,20.01
2023-07-18T17:55:10.652Z,19.82
2023-07-18T17:57:40.681Z,20.35
2023-07-18T18:00:11.415Z,20.68
2023-07-18T18:02:44.616Z,20.47
2023-07-18T18:05:34.844Z,19.66
2023-07-18T18:08:04.436Z,20.36
2023-07-18T18:10:33.106Z,20.84
2023-07-18T18:13:01.488Z,21.74
2023-07-18T18:15:31.269Z,22.23
2023-07-18T18:18:00.320Z,22.72
2023-07-18T18:20:28.452Z,23.28
2023-07-18T18:22:58.835Z,23.72
2023-07-18T18:25:28.001Z,23.73
2023-07-18T18:27:57.378Z,24.28
2023-07-18T18:30:25.911Z,24.95
2023-07-18T18:32:55.593Z,25.44
2023-07-18T18:35:23.679Z,25.76
2023-07-18T18:37:51.927Z,26.24
2023-07-18T18:40:21.058Z,27.04
2023-07-18T18:42:49.453Z,26.70
2023-07-18T18:45:17.774Z,27.20
2023-07-18T18:47:47.607Z,27.33
2023-07-18T18:50:18.349Z,27.01
2023-07-18T18:52:46.723Z,27.26
2023-07-18T18:55:20.298Z,27.46
2023-07-18T18:57:48.942Z,27.84
2023-07-18T19:00:17.788Z,28.24
2023-07-18T19:02:46.135Z,28.82
2023-07-18T19:05:14.266Z,29.06
2023-07-18T19:07:43.948Z,29.41
2023-07-18T19:10:12.090Z,30.77
2023-07-18T19:12:40.370Z,29.76
2023-07-18T19:15:09.234Z,30.27
2023-07-18T19:17:37.611Z,30.61
2023-07-18T19:20:06.762Z,30.60
2023-07-18T19:22:35.175Z,29.62
2023-07-18T19:25:07.280Z,30.42
2023-07-18T19:27:36.009Z,29.29
2023-07-18T19:30:04.439Z,29.86
2023-07-18T19:32:33.305Z,30.71
2023-07-18T19:35:03.853Z,31.19
2023-07-18T19:37:32.416Z,32.30
2023-07-18T19:40:00.466Z,32.80
2023-07-18T19:42:30.194Z,32.94
2023-07-18T19:44:58.412Z,33.02
2023-07-18T19:47:26.874Z,31.62
2023-07-18T19:49:56.370Z,30.53
2023-07-18T19:52:24.702Z,30.06
2023-07-18T19:54:52.693Z,31.31
2023-07-18T19:57:21.215Z,32.61
2023-07-18T19:59:50.782Z,32.62
2023-07-18T20:02:19.193Z,34.94
2023-07-18T20:04:47.740Z,35.33
2023-07-18T20:07:16.735Z,36.76
2023-07-18T20:09:44.875Z,37.44
2023-07-18T20:12:13.260Z,38.34
2023-07-18T20:14:41.602Z,37.97
2023-07-18T20:17:11.445Z,38.68
2023-07-18T20:19:39.614Z,39.04
2023-07-18T20:22:08.005Z,38.66
2023-07-18T20:24:35.998Z,40.00
2023-07-18T20:27:04.620Z,40.44
2023-07-18T20:29:32.949Z,41.19
2023-07-18T20:32:01.732Z,40.91
2023-07-18T20:34:31.246Z,40.44
2023-07-18T20:36:59.553Z,40.71
2023-07-18T20:39:27.576Z,41.15
2023-07-18T20:41:56.002Z,41.37
2023-07-18T20:44:24.012Z,41.95
2023-07-18T20:46:52.335Z,42.11
2023-07-18T20:49:20.309Z,42.08
2023-07-18T20:51:49.871Z,43.37
2023-07-18T20:54:18.118Z,43.26
2023-07-18T20:56:46.351Z,43.57
2023-07-18T20:59:14.412Z,43.42
2023-07-18T21:01:42.707Z,43.17
2023-07-18T21:04:10.876Z,43.77
2023-07-18T21:06:39.268Z,43.60
2023-07-18T21:09:08.630Z,43.58
2023-07-18T21:11:37.095Z,43.69
2023-07-18T21:14:05.169Z,43.59
2023-07-18T21:16:34.720Z,44.45
2023-07-18T21:19:02.726Z,45.09
2023-07-18T21:21:31.834Z,45.89
2023-07-18T21:24:00.756Z,45.77
2023-07-18T21:26:30.473Z,44.36
2023-07-18T21:29:04.704Z,44.47
2023-07-18T21:31:34.382Z,44.00
2023-07-18T21:34:02.790Z,45.18
2023-07-18T21:36:31.072Z,43.94
2023-07-18T21:38:59.093Z,44.13
2023-07-18T21:41:30.257Z,44.19
2023-07-18T21:43:59.762Z,43.89
2023-07-18T21:46:28.216Z,44.59
2023-07-18T21:48:56.482Z,43.89
2023-07-18T21:51:24.739Z,43.91
2023-07-18T21:53:52.710Z,44.36
2023-07-18T21:56:21.272Z,43.99
2023-07-18T21:58:49.328Z,43.65
2023-07-18T22:01:19.200Z,43.83
2023-07-18T22:03:47.488Z,44.97
2023-07-18T22:06:16.224Z,45.69
2023-07-18T22:08:44.208Z,46.16
2023-07-18T22:11:12.468Z,46.78
2023-07-18T22:13:40.605Z,47.41
2023-07-18T22:16:08.979Z,48.36
2023-07-18T22:18:38.540Z,49.64
2023-07-18T22:21:06.851Z,50.25
2023-07-18T22:23:34.909Z,49.91
2023-07-18T22:26:13.702Z,50.47
2023-07-18T22:28:43.232Z,50.61
2023-07-18T22:31:12.431Z,51.16
2023-07-18T22:33:41.876Z,50.80
2023-07-18T22:36:10.222Z,51.24
2023-07-18T22:38:38.317Z,52.07
2023-07-18T22:41:06.556Z,52.74
2023-07-18T22:43:34.627Z,52.94
2023-07-18T22:46:02.890Z,53.42
2023-07-18T22:48:30.937Z,54.00
2023-07-18T22:51:00.541Z,54.69
2023-07-18T22:53:28.571Z,55.22
2023-07-18T22:55:57.156Z,55.75
2023-07-18T22:58:25.333Z,56.41
2023-07-18T23:00:53.933Z,56.35
2023-07-18T23:03:22.125Z,55.94
2023-07-18T23:05:50.422Z,56.53
2023-07-18T23:08:19.835Z,57.82
2023-07-18T23:10:48.563Z,57.64
2023-07-18T23:13:16.656Z,57.51
2023-07-18T23:15:45.045Z,57.34
2023-07-18T23:18:13.170Z,56.06
2023-07-18T23:20:41.545Z,56.66
2023-07-18T23:23:09.664Z,56.58
2023-07-18T23:25:39.390Z,56.94
2023-07-18T23:28:07.514Z,55.82
2023-07-18T23:30:35.972Z,55.92
2023-07-18T23:33:03.982Z,55.74
2023-07-18T23:35:32.260Z,55.66
2023-07-18T23:38:00.231Z,55.91
2023-07-18T23:40:28.499Z,55.10
2023-07-18T23:42:57.917Z,54.70
2023-07-18T23:45:26.394Z,54.72
2023-07-18T23:47:54.424Z,54.81
2023-07-18T23:50:22.752Z,55.15
2023-07-18T23:52:50.765Z,55.53
2023-07-18T23:55:19.036Z,56.34
2023-07-18T23:57:47.060Z,55.54
